Time;durP1;ratioP1;P1;durP2;ratioP2;P2;SDS_P1;SDS_P2;PMS_P1;PMS_P2;Temp;Humidity;BMP_temperature;BMP_pressure;BME280_temperature;BME280_humidity;BME280_pressure;Samples;Min_cycle;Max_cycle;Signal;HPM_P1;HPM_P2
2023/05/15 00:02:18;;;;;;;1.42;1.33;;;12.70;99.90;;;;;;4990121;28;20113;-71
2023/05/15 00:04:43;;;;;;;2.83;1.80;;;12.70;99.90;;;;;;4970988;28;20125;-70
2023/05/15 00:07:09;;;;;;;0.73;0.73;;;12.70;99.90;;;;;;4972095;28;20403;-70
2023/05/15 00:09:35;;;;;;;2.88;1.67;;;12.70;99.90;;;;;;4971488;28;20052;-71
2023/05/15 00:12:01;;;;;;;4.35;2.58;;;12.60;99.90;;;;;;4973818;28;20684;-71
2023/05/15 00:14:27;;;;;;;1.95;1.85;;;12.70;99.90;;;;;;4971708;28;20076;-71
2023/05/15 00:16:52;;;;;;;2.55;2.35;;;12.60;99.90;;;;;;4969506;28;20047;-70
2023/05/15 00:19:19;;;;;;;2.95;2.65;;;12.60;99.90;;;;;;4987075;28;20407;-71
2023/05/15 00:21:45;;;;;;;6.85;3.55;;;12.60;99.90;;;;;;4971221;28;20053;-71
2023/05/15 00:24:10;;;;;;;4.47;2.85;;;12.60;99.90;;;;;;4988545;28;20419;-71
2023/05/15 00:26:36;;;;;;;2.33;2.03;;;12.60;99.90;;;;;;4988659;28;20115;-71
2023/05/15 00:29:02;;;;;;;1.50;1.40;;;12.60;99.90;;;;;;4984059;28;20512;-71
2023/05/15 00:31:27;;;;;;;4.43;2.47;;;12.60;99.90;;;;;;4986527;28;20543;-71
2023/05/15 00:33:53;;;;;;;2.15;1.98;;;12.50;99.90;;;;;;4970434;28;20042;-71
2023/05/15 00:36:20;;;;;;;2.72;1.80;;;12.60;99.90;;;;;;4969031;28;20054;-71
2023/05/15 00:38:46;;;;;;;6.25;2.60;;;12.50;99.90;;;;;;4989189;28;20045;-71
2023/05/15 00:41:13;;;;;;;3.72;3.35;;;12.50;99.90;;;;;;4971503;28;20050;-71
2023/05/15 00:43:41;;;;;;;3.60;3.13;;;12.50;99.90;;;;;;4987920;28;20057;-71
2023/05/15 00:46:08;;;;;;;3.40;3.10;;;12.50;99.90;;;;;;4984919;28;20054;-71
2023/05/15 00:48:34;;;;;;;3.00;2.65;;;12.40;99.90;;;;;;4989092;28;20432;-71
2023/05/15 00:51:01;;;;;;;1.02;0.93;;;12.40;99.90;;;;;;4982166;28;20043;-71
2023/05/15 00:53:27;;;;;;;3.65;2.97;;;12.50;99.90;;;;;;4987060;28;20046;-71
2023/05/15 00:55:58;;;;;;;3.85;2.95;;;12.50;99.90;;;;;;4988642;28;20046;-70
2023/05/15 00:58:26;;;;;;;3.13;2.45;;;12.50;99.90;;;;;;4988662;28;20042;-70
2023/05/15 01:00:52;;;;;;;3.78;3.10;;;12.50;99.90;;;;;;4988891;28;20153;-70
2023/05/15 01:03:18;;;;;;;2.05;1.95;;;12.50;99.90;;;;;;4986195;28;20050;-71
2023/05/15 01:05:44;;;;;;;4.25;2.05;;;12.50;99.90;;;;;;4985471;28;20399;-71
2023/05/15 01:08:37;;;;;;;1.60;1.50;;;12.40;99.90;;;;;;4972798;28;20074;-71
2023/05/15 01:11:06;;;;;;;2.25;2.03;;;12.40;99.90;;;;;;4970051;28;20046;-71
2023/05/15 01:13:32;;;;;;;1.10;1.10;;;12.40;99.90;;;;;;4987690;28;20054;-71
2023/05/15 01:15:57;;;;;;;2.85;2.47;;;12.40;99.90;;;;;;4970026;28;20570;-71
2023/05/15 01:18:24;;;;;;;0.98;0.95;;;12.30;99.90;;;;;;4982006;28;20786;-70
2023/05/15 01:21:06;;;;;;;2.55;2.03;;;12.30;99.90;;;;;;4977095;28;20078;-71
2023/05/15 01:23:51;;;;;;;1.75;1.52;;;12.30;99.90;;;;;;4961747;28;20093;-70
2023/05/15 01:26:32;;;;;;;3.53;2.67;;;12.30;99.90;;;;;;4966750;28;20089;-71
2023/05/15 01:29:03;;;;;;;1.75;1.27;;;12.30;99.90;;;;;;4980922;28;20060;-71
2023/05/15 01:31:33;;;;;;;4.10;2.28;;;12.20;99.90;;;;;;4969307;28;20092;-70
2023/05/15 01:34:05;;;;;;;6.30;2.88;;;12.30;99.90;;;;;;4966565;28;20100;-70
2023/05/15 01:36:37;;;;;;;1.42;1.33;;;12.20;99.90;;;;;;4987717;28;20058;-70
2023/05/15 01:39:04;;;;;;;2.42;2.22;;;12.20;99.90;;;;;;4970338;28;20057;-70
2023/05/15 01:41:44;;;;;;;2.22;2.10;;;12.20;99.90;;;;;;4969931;28;20050;-70
2023/05/15 01:44:18;;;;;;;1.13;1.13;;;12.20;99.90;;;;;;4968947;28;20054;-71
2023/05/15 01:46:48;;;;;;;6.50;3.13;;;12.20;99.90;;;;;;4988141;28;20058;-71
2023/05/15 01:49:18;;;;;;;4.15;2.97;;;12.20;99.90;;;;;;4967389;28;20924;-71
2023/05/15 01:51:46;;;;;;;5.70;3.25;;;12.20;99.90;;;;;;4972988;28;20050;-71
2023/05/15 01:54:13;;;;;;;3.53;2.85;;;12.10;99.90;;;;;;4969559;28;20050;-71
2023/05/15 01:56:40;;;;;;;3.78;2.42;;;12.10;99.90;;;;;;4966926;28;20797;-71
2023/05/15 01:59:07;;;;;;;2.78;1.77;;;12.10;99.90;;;;;;4974356;28;20058;-71
2023/05/15 02:01:34;;;;;;;1.75;1.65;;;12.10;99.90;;;;;;4974109;28;20046;-71
2023/05/15 02:04:02;;;;;;;3.50;3.20;;;12.00;99.90;;;;;;4973909;28;20414;-71
2023/05/15 02:06:29;;;;;;;2.53;2.33;;;12.00;99.90;;;;;;4984866;28;20046;-71
2023/05/15 02:08:57;;;;;;;3.85;2.28;;;12.10;99.90;;;;;;4985002;28;20113;-71
2023/05/15 02:11:22;;;;;;;8.25;3.63;;;12.00;99.90;;;;;;4974905;28;20051;-71
2023/05/15 02:13:49;;;;;;;2.10;1.90;;;12.00;99.90;;;;;;4988924;28;20058;-70
2023/05/15 02:16:14;;;;;;;4.15;2.45;;;12.00;99.90;;;;;;4973629;28;20039;-70
2023/05/15 02:18:40;;;;;;;4.05;3.53;;;12.00;99.90;;;;;;4997864;28;20116;-71
2023/05/15 02:21:07;;;;;;;3.53;2.78;;;12.00;99.90;;;;;;4990672;28;20121;-71
2023/05/15 02:23:32;;;;;;;3.08;2.03;;;12.00;99.90;;;;;;4962628;28;20050;-71
2023/05/15 02:26:13;;;;;;;2.35;2.25;;;12.00;99.90;;;;;;4973911;28;20064;-71
2023/05/15 02:28:59;;;;;;;2.55;2.33;;;12.00;99.90;;;;;;4985728;28;20419;-71
2023/05/15 02:31:49;;;;;;;4.22;1.38;;;11.90;99.90;;;;;;4992205;28;20054;-71
2023/05/15 02:34:58;;;;;;;3.40;2.75;;;11.90;99.90;;;;;;4977143;28;20050;-71
2023/05/15 02:37:29;;;;;;;3.67;3.35;;;11.90;99.90;;;;;;4959369;28;20063;-71
2023/05/15 02:39:58;;;;;;;5.43;2.83;;;11.80;99.90;;;;;;4973965;28;20523;-71
2023/05/15 02:42:26;;;;;;;2.78;2.55;;;11.80;99.90;;;;;;4991469;28;20105;-71
2023/05/15 02:44:53;;;;;;;2.13;2.03;;;11.80;99.90;;;;;;4973767;28;20054;-71
2023/05/15 02:47:21;;;;;;;1.87;1.77;;;11.70;99.90;;;;;;4992453;28;20054;-71
2023/05/15 02:49:47;;;;;;;;;;;11.70;99.90;;;;;;4967365;28;20112;-71
2023/05/15 02:52:13;;;;;;;2.92;2.65;;;11.70;99.90;;;;;;4974506;28;19984;-71
2023/05/15 02:54:39;;;;;;;2.83;2.53;;;11.70;99.90;;;;;;4991127;28;20069;-71
2023/05/15 02:57:06;;;;;;;2.58;2.38;;;11.70;99.90;;;;;;4979107;28;20074;-71
2023/05/15 02:59:33;;;;;;;3.33;3.08;;;11.70;99.90;;;;;;4973151;28;20062;-71
2023/05/15 03:01:59;;;;;;;2.60;1.50;;;11.60;99.90;;;;;;4973472;28;20447;-71
2023/05/15 03:04:24;;;;;;;2.10;1.45;;;11.60;99.90;;;;;;4972724;28;20046;-71
2023/05/15 03:06:50;;;;;;;3.88;3.22;;;11.50;99.90;;;;;;4988716;28;20075;-71
2023/05/15 03:09:16;;;;;;;2.47;2.05;;;11.60;99.90;;;;;;4985486;28;20057;-71
2023/05/15 03:11:42;;;;;;;6.28;3.03;;;11.60;99.90;;;;;;4973051;28;20104;-71
2023/05/15 03:14:08;;;;;;;2.72;2.38;;;11.60;99.90;;;;;;4995311;28;20061;-71
2023/05/15 03:16:35;;;;;;;4.38;3.97;;;11.60;99.90;;;;;;4990947;28;20061;-71
2023/05/15 03:19:01;;;;;;;3.25;2.92;;;11.60;99.90;;;;;;4970993;28;20042;-70
2023/05/15 03:21:27;;;;;;;2.45;2.03;;;11.60;99.90;;;;;;4976684;28;20039;-71
2023/05/15 03:23:52;;;;;;;1.90;1.70;;;11.60;99.90;;;;;;4959757;28;20133;-71
2023/05/15 03:26:18;;;;;;;2.75;2.55;;;11.60;99.90;;;;;;4959288;28;20050;-71
2023/05/15 03:28:44;;;;;;;3.05;2.83;;;11.60;99.90;;;;;;4972421;28;20395;-70
2023/05/15 03:31:09;;;;;;;5.30;3.97;;;11.60;99.90;;;;;;4980837;28;20057;-71
2023/05/15 03:33:36;;;;;;;2.22;1.75;;;11.60;99.90;;;;;;4971254;28;20046;-71
2023/05/15 03:36:02;;;;;;;1.73;1.63;;;11.60;99.90;;;;;;4973181;28;20056;-71
2023/05/15 03:38:27;;;;;;;1.52;1.27;;;11.50;99.90;;;;;;4972060;28;20050;-70
2023/05/15 03:40:53;;;;;;;3.35;1.52;;;11.60;99.90;;;;;;4972804;28;20179;-71
2023/05/15 03:43:19;;;;;;;1.55;1.38;;;11.60;99.90;;;;;;4988472;28;20050;-71
2023/05/15 03:45:44;;;;;;;5.90;3.63;;;11.50;99.90;;;;;;4987905;28;20042;-71
2023/05/15 03:48:10;;;;;;;2.80;2.20;;;11.50;99.90;;;;;;4989384;28;20092;-71
2023/05/15 03:50:35;;;;;;;3.33;1.80;;;11.50;99.90;;;;;;4972940;28;20129;-71
2023/05/15 03:53:01;;;;;;;3.85;2.15;;;11.50;99.90;;;;;;4990385;28;20046;-70
2023/05/15 03:55:27;;;;;;;2.25;0.80;;;11.50;99.90;;;;;;4969286;28;20126;-71
2023/05/15 03:57:53;;;;;;;4.53;2.38;;;11.40;99.90;;;;;;4992613;28;20078;-71
2023/05/15 04:00:19;;;;;;;2.22;1.48;;;11.50;99.90;;;;;;4989076;28;20053;-71
2023/05/15 04:02:44;;;;;;;2.17;1.98;;;11.50;99.90;;;;;;4989269;28;20046;-71
2023/05/15 04:05:10;;;;;;;2.30;2.10;;;11.50;99.90;;;;;;4990815;28;20046;-71
2023/05/15 04:07:36;;;;;;;1.88;1.77;;;11.40;99.90;;;;;;4990037;28;20046;-71
2023/05/15 04:10:02;;;;;;;1.92;1.60;;;11.40;99.90;;;;;;4975575;28;20053;-71
2023/05/15 04:12:31;;;;;;;5.18;4.13;;;11.40;99.90;;;;;;4987895;28;20081;-71
2023/05/15 04:15:18;;;;;;;1.48;1.38;;;11.30;99.90;;;;;;4983858;28;20056;-71
2023/05/15 04:17:48;;;;;;;1.30;1.20;;;11.30;99.90;;;;;;4987961;28;20046;-71
2023/05/15 04:20:15;;;;;;;2.67;2.10;;;11.20;99.90;;;;;;4984096;28;20046;-71
2023/05/15 04:22:42;;;;;;;4.68;2.88;;;11.20;99.90;;;;;;4986154;28;20496;-71
2023/05/15 04:25:10;;;;;;;3.95;2.55;;;11.30;99.90;;;;;;4990075;28;20086;-71
2023/05/15 04:27:36;;;;;;;1.13;1.05;;;11.20;99.90;;;;;;4972711;28;20038;-71
2023/05/15 04:30:04;;;;;;;3.40;2.90;;;11.30;99.90;;;;;;4971576;28;20042;-71
2023/05/15 04:32:32;;;;;;;1.55;1.42;;;11.30;99.90;;;;;;4989711;28;20577;-71
2023/05/15 04:35:02;;;;;;;3.10;2.45;;;11.30;99.90;;;;;;4967974;28;20142;-71
2023/05/15 04:37:28;;;;;;;2.45;2.03;;;11.30;99.90;;;;;;4965860;28;20050;-71
2023/05/15 04:39:54;;;;;;;1.88;1.77;;;11.30;99.90;;;;;;4991527;28;20078;-71
2023/05/15 04:42:20;;;;;;;1.25;1.25;;;11.30;99.90;;;;;;4971660;28;20137;-71
2023/05/15 04:44:46;;;;;;;4.55;3.55;;;11.30;99.90;;;;;;4970817;28;20491;-71
2023/05/15 04:47:12;;;;;;;3.78;2.97;;;11.20;99.90;;;;;;4987036;28;20058;-71
2023/05/15 04:49:40;;;;;;;2.38;2.20;;;11.30;99.90;;;;;;4971239;28;20054;-71
2023/05/15 04:52:05;;;;;;;2.50;2.30;;;11.30;99.90;;;;;;4945074;28;20058;-71
2023/05/15 04:54:31;;;;;;;3.28;2.97;;;11.30;99.90;;;;;;4944305;28;20122;-70
2023/05/15 04:56:57;;;;;;;1.55;1.23;;;11.30;99.90;;;;;;4951883;28;20043;-71
2023/05/15 04:59:23;;;;;;;2.42;2.05;;;11.30;99.90;;;;;;4951315;28;20046;-71
2023/05/15 05:01:50;;;;;;;1.42;1.08;;;11.30;99.90;;;;;;4969312;28;20898;-71
2023/05/15 05:04:18;;;;;;;1.77;1.17;;;11.30;99.90;;;;;;4965481;28;20046;-71
2023/05/15 05:06:44;;;;;;;3.85;2.97;;;11.30;99.90;;;;;;4969675;28;20073;-71
2023/05/15 05:09:10;;;;;;;1.95;1.38;;;11.30;99.90;;;;;;4949562;28;20050;-71
2023/05/15 05:11:38;;;;;;;2.97;2.63;;;11.30;99.90;;;;;;4967322;28;20042;-70
2023/05/15 05:14:07;;;;;;;2.95;1.92;;;11.30;99.90;;;;;;4951247;28;20209;-71
2023/05/15 05:16:33;;;;;;;2.10;1.90;;;11.20;99.90;;;;;;4969335;28;20147;-71
2023/05/15 05:18:58;;;;;;;6.18;2.90;;;11.20;99.90;;;;;;4974295;28;20133;-70
2023/05/15 05:21:24;;;;;;;4.38;3.63;;;11.20;99.90;;;;;;4964983;28;20181;-70
2023/05/15 05:23:49;;;;;;;1.77;1.63;;;11.20;99.90;;;;;;4969592;28;20034;-70
2023/05/15 05:26:15;;;;;;;1.88;1.77;;;11.20;99.90;;;;;;4968240;28;20046;-70
2023/05/15 05:28:41;;;;;;;4.05;2.20;;;11.20;99.90;;;;;;4963119;28;20102;-71
2023/05/15 05:31:06;;;;;;;1.73;1.45;;;11.10;99.90;;;;;;4961470;28;20046;-70
2023/05/15 05:33:32;;;;;;;5.65;2.22;;;11.10;99.90;;;;;;4955024;28;20027;-70
2023/05/15 05:35:58;;;;;;;1.80;1.70;;;11.20;99.90;;;;;;4960288;28;20046;-70
2023/05/15 05:38:26;;;;;;;2.95;2.38;;;11.20;99.90;;;;;;4965119;28;20043;-70
2023/05/15 05:40:52;;;;;;;;;;;11.20;99.90;;;;;;4959951;28;20047;-70
2023/05/15 05:43:17;;;;;;;1.65;1.55;;;11.20;99.90;;;;;;4957978;28;19980;-70
2023/05/15 05:45:43;;;;;;;2.03;1.90;;;11.20;99.90;;;;;;4946173;28;20539;-70
2023/05/15 05:48:09;;;;;;;2.40;2.30;;;11.20;99.90;;;;;;4971429;28;20469;-70
2023/05/15 05:50:35;;;;;;;3.13;2.78;;;11.30;99.90;;;;;;4979780;28;20046;-70
2023/05/15 05:53:01;;;;;;;3.35;2.35;;;11.30;99.90;;;;;;4971959;28;20938;-70
2023/05/15 05:55:27;;;;;;;3.60;3.28;;;11.30;99.90;;;;;;4975432;28;20511;-70
2023/05/15 05:57:53;;;;;;;2.67;1.52;;;11.30;99.90;;;;;;4969574;28;20050;-71
2023/05/15 06:00:19;;;;;;;2.40;2.20;;;11.30;99.90;;;;;;4985610;28;20061;-70
2023/05/15 06:02:45;;;;;;;3.28;3.08;;;11.30;99.90;;;;;;4971749;28;20097;-70
2023/05/15 06:05:10;;;;;;;1.55;0.88;;;11.40;99.90;;;;;;4971854;28;20483;-71
2023/05/15 06:07:36;;;;;;;4.47;2.22;;;11.40;99.90;;;;;;4980331;28;20050;-71
2023/05/15 06:10:01;;;;;;;2.70;1.10;;;11.40;99.90;;;;;;4969889;28;20145;-71
2023/05/15 06:12:27;;;;;;;1.70;1.50;;;11.50;99.90;;;;;;4964339;28;20460;-70
2023/05/15 06:14:53;;;;;;;2.75;2.05;;;11.50;99.90;;;;;;4981589;28;20042;-71
2023/05/15 06:17:18;;;;;;;0.98;0.98;;;11.50;99.90;;;;;;4976221;28;20050;-71
2023/05/15 06:19:44;;;;;;;2.42;2.20;;;11.50;99.90;;;;;;4968793;28;20503;-71
2023/05/15 06:22:10;;;;;;;2.40;1.40;;;11.50;99.90;;;;;;4985883;28;20377;-71
2023/05/15 06:24:35;;;;;;;3.53;1.75;;;11.60;99.90;;;;;;4983009;28;20073;-70
2023/05/15 06:27:01;;;;;;;5.82;2.08;;;11.60;99.90;;;;;;4987537;28;20104;-71
2023/05/15 06:29:27;;;;;;;3.33;1.95;;;11.60;99.90;;;;;;4980951;28;20045;-71
2023/05/15 06:31:53;;;;;;;2.95;2.75;;;11.70;99.90;;;;;;4984991;28;20133;-71
2023/05/15 06:34:19;;;;;;;1.15;1.10;;;11.70;99.90;;;;;;4969766;28;20130;-71
2023/05/15 06:36:44;;;;;;;2.75;2.55;;;11.70;99.90;;;;;;4958172;28;20049;-71
2023/05/15 06:39:10;;;;;;;2.08;1.88;;;11.70;99.90;;;;;;4983201;28;20504;-71
2023/05/15 06:41:37;;;;;;;2.45;2.25;;;11.80;99.90;;;;;;4970715;28;20046;-71
2023/05/15 06:44:03;;;;;;;1.20;1.20;;;11.90;99.90;;;;;;4981580;28;20137;-71
2023/05/15 06:46:29;;;;;;;1.77;1.52;;;12.10;99.90;;;;;;4989524;28;20046;-71
2023/05/15 06:48:55;;;;;;;2.17;2.03;;;12.20;99.90;;;;;;4985526;28;20064;-70
2023/05/15 06:51:20;;;;;;;3.90;3.53;;;12.30;99.90;;;;;;4990117;28;20054;-71
2023/05/15 06:53:46;;;;;;;1.98;1.75;;;12.50;99.90;;;;;;4991381;28;20030;-71
2023/05/15 06:56:12;;;;;;;1.33;1.27;;;12.80;99.90;;;;;;4991743;28;20496;-71
2023/05/15 06:58:37;;;;;;;6.05;2.15;;;13.00;99.90;;;;;;4992152;28;20108;-71
2023/05/15 07:01:05;;;;;;;3.78;2.45;;;13.20;99.90;;;;;;4988543;28;20034;-71
2023/05/15 07:03:30;;;;;;;4.90;3.42;;;13.50;99.90;;;;;;4989545;28;20050;-71
2023/05/15 07:05:56;;;;;;;3.13;2.85;;;13.80;99.90;;;;;;4978323;28;20038;-71
2023/05/15 07:08:22;;;;;;;2.03;1.92;;;14.10;99.90;;;;;;4979636;28;20499;-71
2023/05/15 07:10:48;;;;;;;2.97;2.25;;;14.30;99.90;;;;;;4974467;28;20125;-71
2023/05/15 07:13:16;;;;;;;1.75;1.65;;;14.60;99.90;;;;;;4971630;28;20487;-70
2023/05/15 07:15:42;;;;;;;1.85;1.75;;;14.80;99.90;;;;;;4970653;28;20053;-71
2023/05/15 07:18:09;;;;;;;3.05;2.85;;;15.20;99.90;;;;;;4987103;28;20574;-71
2023/05/15 07:20:35;;;;;;;2.45;2.25;;;15.50;99.90;;;;;;4985592;28;20520;-71
2023/05/15 07:23:00;;;;;;;2.28;2.15;;;15.70;99.90;;;;;;4989492;28;20070;-71
2023/05/15 07:25:26;;;;;;;2.67;2.25;;;15.90;99.90;;;;;;4972203;28;20110;-71
2023/05/15 07:27:52;;;;;;;3.88;3.30;;;16.20;99.90;;;;;;4990782;28;20046;-71
2023/05/15 07:30:18;;;;;;;2.45;2.25;;;16.40;99.90;;;;;;4971367;28;20731;-71
2023/05/15 07:32:43;;;;;;;3.75;3.45;;;16.60;99.90;;;;;;4973246;28;20039;-71
2023/05/15 07:35:10;;;;;;;2.15;2.03;;;16.90;99.90;;;;;;4990472;28;20038;-71
2023/05/15 07:37:36;;;;;;;1.27;1.17;;;16.90;99.90;;;;;;4989423;28;20042;-71
2023/05/15 07:40:03;;;;;;;1.77;1.63;;;17.00;99.90;;;;;;4991222;28;20447;-71
2023/05/15 07:42:28;;;;;;;1.00;1.00;;;17.00;99.90;;;;;;4972510;28;20074;-71
2023/05/15 07:44:54;;;;;;;2.03;1.88;;;16.90;99.90;;;;;;4989300;28;20129;-71
2023/05/15 07:47:20;;;;;;;2.67;2.47;;;17.10;99.90;;;;;;4989740;28;20077;-71
2023/05/15 07:49:45;;;;;;;3.33;1.63;;;17.40;99.90;;;;;;4986930;28;20094;-71
2023/05/15 07:52:11;;;;;;;1.80;1.70;;;17.70;99.90;;;;;;4966202;28;20695;-71
2023/05/15 07:54:38;;;;;;;1.98;1.88;;;17.90;99.90;;;;;;4979207;28;20046;-71
2023/05/15 07:57:04;;;;;;;1.75;1.65;;;18.10;99.90;;;;;;4987522;28;20042;-71
2023/05/15 07:59:30;;;;;;;1.52;1.42;;;18.40;99.90;;;;;;4970515;28;20058;-71
2023/05/15 08:01:55;;;;;;;1.85;1.75;;;18.60;99.90;;;;;;4972325;28;20081;-71
2023/05/15 08:04:21;;;;;;;1.17;0.93;;;18.80;99.90;;;;;;4969065;28;20084;-71
2023/05/15 08:06:46;;;;;;;1.40;1.30;;;18.90;99.90;;;;;;4987291;28;20113;-71
2023/05/15 08:09:12;;;;;;;1.45;1.35;;;19.10;99.90;;;;;;4989472;28;20058;-71
2023/05/15 08:11:38;;;;;;;1.10;1.10;;;19.30;99.90;;;;;;4989529;28;20081;-71
2023/05/15 08:14:03;;;;;;;1.20;0.82;;;19.10;99.90;;;;;;4987019;28;20046;-71
2023/05/15 08:16:29;;;;;;;2.08;1.60;;;19.20;99.90;;;;;;4974034;28;20046;-71
2023/05/15 08:18:59;;;;;;;6.68;1.70;;;19.00;99.90;;;;;;4971974;28;20476;-71
2023/05/15 08:21:26;;;;;;;1.70;1.60;;;19.10;99.90;;;;;;4962052;28;20054;-71
2023/05/15 08:23:52;;;;;;;1.40;1.30;;;19.30;99.90;;;;;;4964118;28;20468;-71
2023/05/15 08:26:17;;;;;;;3.05;1.92;;;19.20;99.90;;;;;;4958629;28;20086;-72
2023/05/15 08:28:43;;;;;;;1.85;1.65;;;19.40;99.90;;;;;;4976346;28;20049;-71
2023/05/15 08:31:09;;;;;;;0.60;0.57;;;19.60;99.90;;;;;;4958649;28;20492;-71
2023/05/15 08:33:34;;;;;;;2.10;1.67;;;19.90;99.90;;;;;;4980188;28;20062;-72
2023/05/15 08:36:00;;;;;;;1.55;1.45;;;20.20;99.90;;;;;;4970616;28;20826;-72
2023/05/15 08:38:26;;;;;;;1.58;1.08;;;20.10;90.60;;;;;;4970764;28;20046;-72
2023/05/15 08:40:53;;;;;;;1.35;1.25;;;19.80;96.40;;;;;;4970160;28;20050;-71
2023/05/15 08:43:21;;;;;;;1.55;1.45;;;19.70;99.90;;;;;;4988430;28;20388;-71
2023/05/15 08:45:48;;;;;;;1.83;1.70;;;19.90;99.90;;;;;;4971032;28;20053;-71
2023/05/15 08:48:16;;;;;;;0.90;0.90;;;20.20;99.90;;;;;;4953787;28;20089;-71
2023/05/15 08:50:43;;;;;;;;;;;20.40;99.90;;;;;;4969835;28;20061;-71
2023/05/15 08:53:11;;;;;;;0.85;0.85;;;20.60;99.90;;;;;;4948993;28;19937;-72
2023/05/15 08:55:36;;;;;;;1.10;1.10;;;20.90;99.90;;;;;;4967188;28;20083;-76
2023/05/15 08:58:03;;;;;;;1.48;1.15;;;21.00;99.70;;;;;;4938386;28;20131;-75
2023/05/15 09:00:29;;;;;;;1.67;1.58;;;21.10;98.00;;;;;;4942154;28;20091;-76
2023/05/15 09:02:58;;;;;;;1.30;1.30;;;21.20;96.80;;;;;;4946191;28;20047;-75
2023/05/15 09:05:24;;;;;;;3.75;1.38;;;21.20;99.90;;;;;;4954528;28;20046;-75
2023/05/15 09:07:53;;;;;;;2.00;1.48;;;21.20;96.00;;;;;;4951289;28;20483;-75
2023/05/15 09:10:19;;;;;;;2.85;2.22;;;21.00;91.60;;;;;;4948691;28;20061;-75
2023/05/15 09:12:45;;;;;;;1.13;1.13;;;20.80;92.80;;;;;;4974939;28;20064;-75
2023/05/15 09:15:16;;;;;;;0.93;0.93;;;20.80;94.70;;;;;;4967737;28;20055;-74
2023/05/15 09:17:43;;;;;;;0.90;0.90;;;20.90;93.80;;;;;;4955590;28;20050;-75
2023/05/15 09:20:47;;;;;;;0.65;0.65;;;21.10;97.30;;;;;;4954401;28;20427;-75
2023/05/15 09:23:26;;;;;;;1.10;1.02;;;21.40;90.80;;;;;;4892357;29;20127;-75
2023/05/15 09:25:55;;;;;;;1.23;0.88;;;21.60;99.90;;;;;;4887397;29;20044;-75
2023/05/15 09:28:29;;;;;;;1.17;1.08;;;21.60;88.60;;;;;;4924581;28;20061;-75
2023/05/15 09:31:03;;;;;;;1.50;1.40;;;21.80;94.10;;;;;;4943659;28;20551;-75
2023/05/15 09:33:36;;;;;;;0.90;0.90;;;22.10;88.90;;;;;;4950354;28;20059;-76
2023/05/15 09:36:04;;;;;;;0.98;0.98;;;22.20;93.90;;;;;;4952870;28;20066;-75
2023/05/15 09:38:40;;;;;;;1.35;1.30;;;22.50;92.60;;;;;;4936476;28;20046;-75
2023/05/15 09:41:11;;;;;;;1.80;1.70;;;22.60;81.40;;;;;;4974623;28;20058;-76
2023/05/15 09:43:38;;;;;;;1.20;1.20;;;22.50;90.90;;;;;;4966185;28;20769;-75
2023/05/15 09:46:05;;;;;;;0.95;0.95;;;22.50;89.20;;;;;;4960546;28;20065;-76
2023/05/15 09:48:31;;;;;;;1.23;1.17;;;22.70;90.10;;;;;;4982767;28;20054;-75
2023/05/15 09:50:57;;;;;;;0.80;0.80;;;22.90;89.40;;;;;;4986128;28;20046;-75
2023/05/15 09:53:23;;;;;;;0.93;0.93;;;23.20;89.70;;;;;;4968969;28;20050;-76
2023/05/15 09:55:51;;;;;;;0.80;0.68;;;23.10;77.90;;;;;;4970053;28;20050;-75
2023/05/15 09:58:18;;;;;;;1.17;1.08;;;23.30;79.00;;;;;;4970641;28;20058;-75
2023/05/15 10:00:46;;;;;;;0.60;0.60;;;23.00;72.00;;;;;;4952413;28;20128;-75
2023/05/15 10:03:13;;;;;;;1.00;1.00;;;22.90;77.10;;;;;;4963222;28;20050;-75
2023/05/15 10:05:39;;;;;;;0.88;0.88;;;23.00;78.10;;;;;;4969794;28;20075;-73
2023/05/15 10:08:05;;;;;;;1.25;1.25;;;23.10;79.50;;;;;;4955103;28;20126;-75
2023/05/15 10:10:32;;;;;;;2.00;1.85;;;23.10;65.40;;;;;;4978693;28;20184;-74
2023/05/15 10:13:00;;;;;;;2.00;1.90;;;22.50;71.60;;;;;;4972173;28;20058;-74
2023/05/15 10:15:27;;;;;;;0.68;0.68;;;22.60;76.30;;;;;;4981388;28;20046;-74
2023/05/15 10:17:53;;;;;;;1.45;1.23;;;22.40;70.10;;;;;;4959551;28;20057;-74
2023/05/15 10:20:22;;;;;;;0.60;0.60;;;22.20;74.90;;;;;;4987591;28;20050;-74
2023/05/15 10:22:53;;;;;;;0.43;0.43;;;22.30;76.80;;;;;;4968242;28;20056;-75
2023/05/15 10:25:25;;;;;;;0.45;0.45;;;22.30;67.70;;;;;;4987380;28;20046;-74
2023/05/15 10:27:52;;;;;;;0.80;0.75;;;22.10;70.70;;;;;;4974712;28;20048;-74
2023/05/15 10:30:19;;;;;;;1.42;1.27;;;22.30;74.60;;;;;;4992290;28;20062;-74
2023/05/15 10:32:45;;;;;;;0.52;0.52;;;22.50;72.20;;;;;;4970207;28;20061;-74
2023/05/15 10:35:11;;;;;;;0.43;0.43;;;22.40;74.30;;;;;;4991235;28;20403;-75
2023/05/15 10:37:38;;;;;;;1.15;0.93;;;22.70;76.90;;;;;;4991774;28;20492;-75
2023/05/15 10:40:09;;;;;;;1.30;1.20;;;22.80;75.50;;;;;;4974239;28;20129;-75
2023/05/15 10:42:37;;;;;;;0.40;0.40;;;23.20;72.90;;;;;;4973075;28;20058;-75
2023/05/15 10:45:04;;;;;;;1.50;1.45;;;23.20;66.20;;;;;;4988013;28;20054;-75
2023/05/15 10:47:32;;;;;;;0.40;0.40;;;23.40;71.60;;;;;;4968111;28;20793;-74
2023/05/15 10:49:58;;;;;;;1.02;1.02;;;23.40;64.40;;;;;;4980430;28;20046;-75
2023/05/15 10:52:23;;;;;;;1.50;1.42;;;23.00;67.30;;;;;;4972572;28;20117;-75
2023/05/15 10:54:51;;;;;;;1.48;1.38;;;23.10;74.20;;;;;;4971329;28;20049;-75
2023/05/15 10:57:17;;;;;;;0.95;0.95;;;23.10;67.60;;;;;;4968275;28;20077;-75
2023/05/15 10:59:43;;;;;;;1.45;0.47;;;23.30;69.40;;;;;;4968250;28;20054;-75
2023/05/15 11:02:25;;;;;;;1.30;1.00;;;23.30;72.90;;;;;;4964320;28;20089;-75
2023/05/15 11:05:02;;;;;;;2.13;1.73;;;23.20;68.10;;;;;;4973291;28;20841;-75
2023/05/15 11:07:29;;;;;;;1.00;1.00;;;23.30;69.50;;;;;;4969197;28;20078;-75
2023/05/15 11:09:55;;;;;;;1.43;1.33;;;23.40;73.80;;;;;;4970911;28;20050;-74
2023/05/15 11:12:21;;;;;;;1.27;1.23;;;23.50;73.00;;;;;;4970169;28;21074;-75
2023/05/15 11:14:53;;;;;;;2.28;2.08;;;23.70;71.50;;;;;;4964025;28;20082;-74
2023/05/15 11:17:21;;;;;;;1.00;1.00;;;23.80;68.10;;;;;;4988485;28;20042;-74
2023/05/15 11:19:50;;;;;;;0.70;0.70;;;23.70;68.70;;;;;;4971245;28;20046;-74
2023/05/15 11:22:35;;;;;;;1.45;1.35;;;23.80;71.60;;;;;;4972964;28;20074;-74
2023/05/15 11:25:03;;;;;;;1.35;1.35;;;23.90;71.00;;;;;;4984585;28;20034;-74
2023/05/15 11:27:41;;;;;;;0.90;0.90;;;24.10;71.70;;;;;;4968956;28;20046;-74
2023/05/15 11:30:21;;;;;;;2.08;1.98;;;24.30;66.70;;;;;;4970373;28;20054;-75
2023/05/15 11:33:00;;;;;;;2.25;0.95;;;24.30;71.70;;;;;;4966376;28;20050;-75
2023/05/15 11:35:28;;;;;;;1.27;1.13;;;24.40;70.70;;;;;;4973437;28;20121;-75
2023/05/15 11:38:01;;;;;;;0.80;0.80;;;24.20;68.00;;;;;;4973719;28;20499;-75
2023/05/15 11:40:42;;;;;;;0.90;0.85;;;24.00;70.00;;;;;;4988758;28;20043;-73
2023/05/15 11:43:16;;;;;;;0.82;0.50;;;23.90;69.50;;;;;;4988550;28;20058;-75
2023/05/15 11:45:44;;;;;;;0.75;0.75;;;23.70;71.30;;;;;;4988828;28;20054;-75
2023/05/15 11:48:16;;;;;;;0.50;0.50;;;23.80;72.30;;;;;;4971891;28;20058;-75
2023/05/15 11:50:44;;;;;;;0.40;0.40;;;23.80;71.60;;;;;;4972214;28;20480;-75
2023/05/15 11:53:10;;;;;;;0.88;0.88;;;23.80;71.90;;;;;;4989597;28;20769;-75
2023/05/15 11:55:37;;;;;;;1.60;1.50;;;23.70;66.70;;;;;;4972086;28;20058;-75
2023/05/15 11:58:04;;;;;;;0.50;0.50;;;23.60;73.70;;;;;;4971733;28;20112;-75
2023/05/15 12:00:30;;;;;;;0.85;0.85;;;23.60;71.00;;;;;;4972244;28;20434;-75
2023/05/15 12:02:56;;;;;;;0.77;0.77;;;23.70;74.30;;;;;;4961157;28;20890;-75
2023/05/15 12:05:22;;;;;;;0.68;0.52;;;23.70;72.90;;;;;;4987283;28;20137;-75
2023/05/15 12:07:49;;;;;;;1.85;1.48;;;23.90;75.50;;;;;;4972755;28;20042;-75
2023/05/15 12:10:14;;;;;;;0.95;0.93;;;24.10;71.30;;;;;;4971977;28;20081;-75
2023/05/15 12:12:45;;;;;;;0.95;0.95;;;24.10;71.00;;;;;;4962904;28;20480;-75
2023/05/15 12:15:15;;;;;;;0.63;0.63;;;23.90;68.20;;;;;;4983799;28;20125;-74
2023/05/15 12:17:42;;;;;;;0.40;0.40;;;23.70;71.00;;;;;;4971947;28;20116;-75
2023/05/15 12:20:17;;;;;;;0.50;0.50;;;23.80;72.50;;;;;;4972071;28;20066;-75
2023/05/15 12:22:43;;;;;;;0.50;0.50;;;23.90;68.60;;;;;;4969962;28;20526;-74
2023/05/15 12:25:11;;;;;;;1.10;1.10;;;23.90;71.70;;;;;;4968257;28;20050;-75
2023/05/15 12:27:39;;;;;;;0.73;0.73;;;23.90;69.50;;;;;;4971520;28;20046;-75
2023/05/15 12:30:05;;;;;;;0.52;0.52;;;23.80;69.20;;;;;;4971348;28;20085;-74
2023/05/15 12:32:33;;;;;;;2.03;1.20;;;23.70;71.10;;;;;;4968567;28;20092;-74
2023/05/15 12:35:00;;;;;;;0.80;0.80;;;23.60;73.10;;;;;;4982562;28;20054;-74
2023/05/15 12:37:26;;;;;;;0.57;0.57;;;23.70;72.10;;;;;;4971361;28;20098;-74
2023/05/15 12:39:54;;;;;;;0.75;0.75;;;23.50;70.60;;;;;;4970870;28;20042;-74
2023/05/15 12:42:21;;;;;;;1.15;1.15;;;23.40;71.70;;;;;;4967139;28;20109;-74
2023/05/15 12:44:51;;;;;;;0.40;0.40;;;23.30;72.30;;;;;;4989338;28;20058;-74
2023/05/15 12:47:24;;;;;;;0.47;0.47;;;23.20;71.30;;;;;;4992632;28;20125;-74
2023/05/15 12:49:57;;;;;;;1.88;1.77;;;23.10;71.70;;;;;;4989327;28;20057;-74
2023/05/15 12:52:26;;;;;;;1.77;1.23;;;23.10;72.70;;;;;;4970678;28;20057;-74